Terminal Aerodrome Forecast
Issued by NWS

Home | Current Version | Previous Version | Text Only | Print | Product List | Glossary On
Versions: 1 2 3 4 5 6 7 8 9 10 11 12 13 14 15
000
FTUS46 KLOX 250500 RRA
TAFOXR
TAF
KOXR 250543Z 2506/2606 28010KT P6SM BKN012
     FM250900 30010KT P6SM SCT015 BKN050
     FM251300 02015KT P6SM SCT100
     FM252000 30012KT P6SM SCT150
     FM260400 VRB03KT P6SM SKC=

USA.gov is the U.S. government's official web portal to all federal, state and local government web resources and services.